createdAt,value
2018-10-19T00:25:23.407Z,20.6
2018-10-19T00:26:13.253Z,20.6
2018-10-19T00:27:04.092Z,20.6
2018-10-19T00:27:53.363Z,20.6
2018-10-19T00:28:42.881Z,20.6
2018-10-19T00:29:33.793Z,20.6
2018-10-19T00:30:24.313Z,20.6
2018-10-19T00:31:13.310Z,20.6
2018-10-19T00:32:03.610Z,20.6
2018-10-19T00:32:52.893Z,20.6
2018-10-19T00:33:43.521Z,20.6
2018-10-19T00:34:33.597Z,20.6
2018-10-19T00:35:24.483Z,20.6
2018-10-19T00:36:13.776Z,20.6
2018-10-19T00:37:03.752Z,20.6
2018-10-19T00:37:54.097Z,20.6
2018-10-19T00:38:43.854Z,20.6
2018-10-19T00:39:33.602Z,20.6
2018-10-19T00:40:23.080Z,20.6
2018-10-19T00:41:15.027Z,20.6
2018-10-19T00:42:04.407Z,20.6
2018-10-19T00:42:53.907Z,20.6
2018-10-19T00:43:43.642Z,20.6
2018-10-19T00:44:34.272Z,20.6
2018-10-19T00:45:24.124Z,20.6
2018-10-19T00:46:14.699Z,20.6
2018-10-19T00:47:05.716Z,20.6
2018-10-19T00:47:54.029Z,20.6
2018-10-19T00:48:45.138Z,20.6
2018-10-19T00:49:34.669Z,20.6
2018-10-19T00:50:24.452Z,20.6
2018-10-19T00:51:16.643Z,20.6
2018-10-19T00:52:04.796Z,20.6
2018-10-19T00:52:54.718Z,20.6
2018-10-19T00:53:44.678Z,20.6
2018-10-19T00:54:35.586Z,20.6
2018-10-19T00:55:25.058Z,20.6
2018-10-19T00:56:15.440Z,20.6
2018-10-19T00:57:05.812Z,20.6
2018-10-19T00:57:55.553Z,20.6
2018-10-19T00:58:45.634Z,20.6
2018-10-19T00:59:35.665Z,20.6
2018-10-19T01:00:25.531Z,20.6
2018-10-19T01:01:15.196Z,20.6
2018-10-19T01:02:06.202Z,20.6
2018-10-19T01:02:55.571Z,20.6
2018-10-19T01:03:45.154Z,20.6
2018-10-19T01:04:35.234Z,20.6
2018-10-19T01:05:25.871Z,20.6
2018-10-19T01:06:16.508Z,20.6
2018-10-19T01:07:06.244Z,20.6
2018-10-19T01:07:56.591Z,20.6
2018-10-19T01:08:46.366Z,20.6
2018-10-19T01:09:36.149Z,20.6
2018-10-19T01:10:26.711Z,20.6
2018-10-19T01:11:18.613Z,20.6
2018-10-19T01:12:06.590Z,20.6
2018-10-19T01:12:56.395Z,20.6
2018-10-19T01:13:46.197Z,20.6
2018-10-19T01:14:36.523Z,20.6
2018-10-19T01:15:26.960Z,20.6
2018-10-19T01:16:16.937Z,20.6
2018-10-19T01:17:08.303Z,20.6
2018-10-19T01:17:57.152Z,20.6
2018-10-19T01:18:46.584Z,20.6
2018-10-19T01:19:37.162Z,20.6
2018-10-19T01:20:27.275Z,20.6
2018-10-19T01:21:17.731Z,20.6
2018-10-19T01:22:07.622Z,20.6
2018-10-19T01:22:57.339Z,20.6
2018-10-19T01:23:47.464Z,20.6
2018-10-19T01:24:37.259Z,20.6
2018-10-19T01:25:28.147Z,20.6
2018-10-19T01:26:17.679Z,20.6
2018-10-19T01:27:07.988Z,20.6
2018-10-19T01:27:56.911Z,20.6
2018-10-19T01:28:47.867Z,20.6
2018-10-19T01:29:37.951Z,20.6
2018-10-19T01:30:27.998Z,20.6
2018-10-19T01:31:18.336Z,20.6
2018-10-19T01:32:07.724Z,20.6
2018-10-19T01:32:58.871Z,20.6
2018-10-19T01:33:48.219Z,20.6
2018-10-19T01:34:38.301Z,20.6
2018-10-19T01:35:28.089Z,20.6
2018-10-19T01:36:18.451Z,20.6
2018-10-19T01:37:07.618Z,20.6
2018-10-19T01:37:59.165Z,20.6
2018-10-19T01:38:48.601Z,20.6
2018-10-19T01:39:38.501Z,20.6
2018-10-19T01:40:28.907Z,20.5
2018-10-19T01:41:19.449Z,20.6
2018-10-19T01:42:09.310Z,20.6
2018-10-19T01:42:59.203Z,20.6
2018-10-19T01:43:48.385Z,20.6
2018-10-19T01:44:37.635Z,20.5
2018-10-19T01:45:28.508Z,20.6
2018-10-19T01:46:19.128Z,20.6
2018-10-19T01:47:10.329Z,20.5
2018-10-19T01:47:58.703Z,20.6
2018-10-19T01:48:49.073Z,20.6
2018-10-19T01:49:39.090Z,20.6
2018-10-19T01:50:28.880Z,20.6
2018-10-19T01:51:20.007Z,20.6
2018-10-19T01:52:10.512Z,20.6
2018-10-19T01:52:59.276Z,20.6
2018-10-19T01:53:48.824Z,20.5
2018-10-19T01:54:39.516Z,20.6
2018-10-19T01:55:29.909Z,20.5
2018-10-19T01:56:20.412Z,20.5
2018-10-19T01:57:11.198Z,20.5
2018-10-19T01:58:00.036Z,20.5
2018-10-19T01:58:49.564Z,20.5
2018-10-19T01:59:40.509Z,20.5
2018-10-19T02:00:30.260Z,20.5
2018-10-19T02:01:20.254Z,20.5
2018-10-19T02:02:10.024Z,20.5
2018-10-19T02:03:00.386Z,20.5
2018-10-19T02:03:49.755Z,20.5
2018-10-19T02:04:41.202Z,20.5
2018-10-19T02:05:30.431Z,20.5
2018-10-19T02:06:20.964Z,20.5
2018-10-19T02:07:10.142Z,20.5
2018-10-19T02:08:00.546Z,20.5
2018-10-19T02:08:51.138Z,20.5
2018-10-19T02:09:40.896Z,20.5
2018-10-19T02:10:30.902Z,20.5
2018-10-19T02:11:20.851Z,20.5
2018-10-19T02:12:11.031Z,20.5
2018-10-19T02:13:01.102Z,20.5
2018-10-19T02:13:50.891Z,20.5
2018-10-19T02:14:40.385Z,20.5
2018-10-19T02:15:31.343Z,20.5
2018-10-19T02:16:20.276Z,20.5
2018-10-19T02:17:12.169Z,20.5
2018-10-19T02:18:01.202Z,20.5
2018-10-19T02:18:51.299Z,20.5
2018-10-19T02:19:40.476Z,20.5
2018-10-19T02:20:31.672Z,20.5
2018-10-19T02:21:21.507Z,20.5
2018-10-19T02:22:11.787Z,20.5
2018-10-19T02:23:02.821Z,20.5
2018-10-19T02:23:51.921Z,20.5
2018-10-19T02:24:41.703Z,20.5
2018-10-19T02:25:31.463Z,20.5
2018-10-19T02:26:21.501Z,20.5
2018-10-19T02:27:14.258Z,20.5
2018-10-19T02:28:02.561Z,20.5
2018-10-19T02:28:51.755Z,20.5
2018-10-19T02:29:42.625Z,20.5
2018-10-19T02:30:31.080Z,20.5
2018-10-19T02:31:22.057Z,20.5
2018-10-19T02:32:12.833Z,20.5
2018-10-19T02:33:03.241Z,20.5
2018-10-19T02:33:51.826Z,20.5
2018-10-19T02:34:42.515Z,20.5
2018-10-19T02:35:32.003Z,20.5
2018-10-19T02:36:23.180Z,20.5
2018-10-19T02:37:12.567Z,20.4
2018-10-19T02:38:02.719Z,20.5
2018-10-19T02:38:53.196Z,20.5
2018-10-19T02:39:43.139Z,20.5
2018-10-19T02:40:33.186Z,20.4
2018-10-19T02:41:24.097Z,20.4
2018-10-19T02:42:12.724Z,20.5
2018-10-19T02:43:03.022Z,20.5
2018-10-19T02:43:52.833Z,20.4
2018-10-19T02:44:42.739Z,20.5
2018-10-19T02:45:33.064Z,20.4
2018-10-19T02:46:23.424Z,20.5
2018-10-19T02:47:14.623Z,20.4
2018-10-19T02:48:03.215Z,20.4
2018-10-19T02:48:53.287Z,20.4
2018-10-19T02:49:43.317Z,20.4
2018-10-19T02:50:33.572Z,20.4
2018-10-19T02:51:24.797Z,20.4
2018-10-19T02:52:14.334Z,20.4
2018-10-19T02:53:04.522Z,20.4
2018-10-19T02:53:53.875Z,20.4
2018-10-19T02:54:43.369Z,20.4
2018-10-19T02:55:33.453Z,20.4
2018-10-19T02:56:23.790Z,20.4
2018-10-19T02:57:14.562Z,20.4
2018-10-19T02:58:04.996Z,20.4
2018-10-19T02:58:54.321Z,20.4
2018-10-19T02:59:44.284Z,20.4
2018-10-19T03:00:34.087Z,20.4
2018-10-19T03:01:24.177Z,20.4
2018-10-19T03:02:14.207Z,20.4
2018-10-19T03:03:05.387Z,20.4
2018-10-19T03:03:55.479Z,20.4
2018-10-19T03:04:44.699Z,20.4
2018-10-19T03:05:35.285Z,20.4
2018-10-19T03:06:24.215Z,20.4
2018-10-19T03:07:15.205Z,20.4
2018-10-19T03:08:04.938Z,20.4
2018-10-19T03:08:55.526Z,20.4
2018-10-19T03:09:45.173Z,20.4
2018-10-19T03:10:35.453Z,20.4
2018-10-19T03:11:26.423Z,20.4
2018-10-19T03:12:15.670Z,20.4
2018-10-19T03:13:05.309Z,20.4
2018-10-19T03:13:55.568Z,20.4
2018-10-19T03:14:45.711Z,20.4
2018-10-19T03:15:35.519Z,20.4
2018-10-19T03:16:25.868Z,20.4
2018-10-19T03:17:17.556Z,20.4
2018-10-19T03:18:05.743Z,20.4
2018-10-19T03:18:56.566Z,20.4
2018-10-19T03:19:46.446Z,20.4
2018-10-19T03:20:35.434Z,20.4
2018-10-19T03:21:25.502Z,20.4
2018-10-19T03:22:15.018Z,20.4
2018-10-19T03:23:07.944Z,20.4
2018-10-19T03:23:56.411Z,20.4
2018-10-19T03:24:46.241Z,20.4
2018-10-19T03:25:37.380Z,20.4
2018-10-19T03:26:27.028Z,20.4
2018-10-19T03:27:18.717Z,20.4
2018-10-19T03:28:06.676Z,20.4
2018-10-19T03:28:56.832Z,20.4
2018-10-19T03:29:46.654Z,20.4
2018-10-19T03:30:36.890Z,20.4
2018-10-19T03:31:26.784Z,20.4
2018-10-19T03:32:15.945Z,20.4
2018-10-19T03:33:07.957Z,20.4
2018-10-19T03:33:56.963Z,20.4
2018-10-19T03:34:47.733Z,20.4
2018-10-19T03:35:36.701Z,20.4
2018-10-19T03:36:26.965Z,20.4
2018-10-19T03:37:17.091Z,20.4
2018-10-19T03:38:06.893Z,20.4
2018-10-19T03:38:57.899Z,20.4
2018-10-19T03:39:47.316Z,20.4
2018-10-19T03:40:37.616Z,20.4
2018-10-19T03:41:27.184Z,20.4
2018-10-19T03:42:17.212Z,20.4
2018-10-19T03:43:07.228Z,20.4
2018-10-19T03:43:57.571Z,20.4
2018-10-19T03:44:47.991Z,20.4
2018-10-19T03:45:37.698Z,20.4
2018-10-19T03:46:28.089Z,20.4
2018-10-19T03:47:18.396Z,20.4
2018-10-19T03:48:07.979Z,20.4
2018-10-19T03:48:57.873Z,20.4
2018-10-19T03:49:48.296Z,20.4
2018-10-19T03:50:38.419Z,20.4
2018-10-19T03:51:27.601Z,20.4
2018-10-19T03:52:17.865Z,20.4
2018-10-19T03:53:09.936Z,20.4
2018-10-19T03:53:58.388Z,20.4
2018-10-19T03:54:47.845Z,20.4
2018-10-19T03:55:38.995Z,20.4
2018-10-19T03:56:29.046Z,20.4
2018-10-19T03:57:20.781Z,20.4
2018-10-19T03:58:08.892Z,20.4
2018-10-19T03:58:58.742Z,20.4
2018-10-19T03:59:49.073Z,20.4
2018-10-19T04:00:38.780Z,20.4
2018-10-19T04:01:29.195Z,20.4
2018-10-19T04:02:19.246Z,20.4
2018-10-19T04:03:11.069Z,20.4
2018-10-19T04:03:59.098Z,20.4
2018-10-19T04:04:49.458Z,20.4
2018-10-19T04:05:39.953Z,20.4
2018-10-19T04:06:29.543Z,20.4
2018-10-19T04:07:19.295Z,20.4
2018-10-19T04:08:09.070Z,20.4
2018-10-19T04:08:59.883Z,20.3
2018-10-19T04:09:49.536Z,20.4
2018-10-19T04:10:39.827Z,20.4
2018-10-19T04:11:29.864Z,20.4
2018-10-19T04:12:19.660Z,20.4
2018-10-19T04:13:09.700Z,20.3
2018-10-19T04:14:00.097Z,20.4
2018-10-19T04:14:49.568Z,20.4
2018-10-19T04:15:40.764Z,20.4
2018-10-19T04:16:30.242Z,20.4
2018-10-19T04:17:20.506Z,20.4
2018-10-19T04:18:10.650Z,20.3
2018-10-19T04:18:59.935Z,20.3
2018-10-19T04:19:49.998Z,20.4
2018-10-19T04:20:40.382Z,20.3
2018-10-19T04:21:30.895Z,20.4
2018-10-19T04:22:20.389Z,20.3
2018-10-19T04:23:12.065Z,20.4
2018-10-19T04:24:00.811Z,20.4
2018-10-19T04:24:50.614Z,20.3
2018-10-19T04:25:41.226Z,20.3
2018-10-19T04:26:31.804Z,20.3
2018-10-19T04:27:22.952Z,20.4
2018-10-19T04:28:11.069Z,20.4
2018-10-19T04:29:01.885Z,20.3
2018-10-19T04:29:51.561Z,20.4
2018-10-19T04:30:41.564Z,20.3
2018-10-19T04:31:31.384Z,20.3
2018-10-19T04:32:20.556Z,20.3
2018-10-19T04:33:12.480Z,20.3
2018-10-19T04:34:00.988Z,20.3
2018-10-19T04:34:51.634Z,20.3
2018-10-19T04:35:41.123Z,20.3
2018-10-19T04:36:31.703Z,20.3
2018-10-19T04:54:42.787Z,20.3
2018-10-19T04:55:33.667Z,20.3
2018-10-19T04:56:22.877Z,20.3
2018-10-19T04:57:15.819Z,20.3
2018-10-19T04:58:03.300Z,20.3
2018-10-19T04:58:53.386Z,20.3
2018-10-19T04:59:43.126Z,20.3
2018-10-19T05:00:33.792Z,20.3
2018-10-19T05:01:23.541Z,20.3
2018-10-19T05:02:13.937Z,20.3
2018-10-19T05:03:04.844Z,20.3
2018-10-19T05:03:53.714Z,20.3
2018-10-19T05:04:44.885Z,20.3
2018-10-19T05:05:35.784Z,20.3
2018-10-19T05:06:25.161Z,20.3
2018-10-19T05:07:14.306Z,20.3
2018-10-19T05:08:05.218Z,20.3
2018-10-19T05:08:53.531Z,20.3
2018-10-19T05:09:44.146Z,20.3
2018-10-19T05:10:33.732Z,20.3
2018-10-19T05:11:25.103Z,20.3
2018-10-19T05:12:14.366Z,20.3
2018-10-19T05:13:05.111Z,20.3
2018-10-19T05:13:55.508Z,20.3
2018-10-19T05:14:44.800Z,20.3
2018-10-19T05:15:34.373Z,20.3
2018-10-19T05:16:25.336Z,20.3
2018-10-19T05:17:15.744Z,20.3
2018-10-19T05:18:04.962Z,20.3
2018-10-19T05:18:54.860Z,20.3
2018-10-19T05:19:45.441Z,20.3
2018-10-19T05:20:34.990Z,20.3
2018-10-19T05:21:25.423Z,20.3
2018-10-19T05:22:15.369Z,20.3
2018-10-19T05:23:06.634Z,20.3
2018-10-19T05:23:55.846Z,20.3
2018-10-19T05:24:47.276Z,20.3
2018-10-19T05:25:35.452Z,20.3
2018-10-19T05:26:25.869Z,20.3
2018-10-19T05:27:15.793Z,20.3
2018-10-19T05:28:04.844Z,20.3
2018-10-19T05:28:55.592Z,20.3
2018-10-19T05:29:45.283Z,20.3
2018-10-19T05:30:36.105Z,20.3
2018-10-19T05:31:26.239Z,20.3
2018-10-19T05:32:17.857Z,20.3
2018-10-19T05:33:07.257Z,20.3
2018-10-19T05:33:55.868Z,20.3
2018-10-19T05:34:46.659Z,20.3
2018-10-19T05:35:36.700Z,20.3
2018-10-19T05:36:26.762Z,20.3
2018-10-19T05:37:16.807Z,20.3
2018-10-19T05:38:07.456Z,20.3
2018-10-19T05:38:55.890Z,20.3
2018-10-19T05:39:47.005Z,20.3
2018-10-19T05:40:36.273Z,20.3
2018-10-19T05:41:26.860Z,20.3
2018-10-19T05:42:16.805Z,20.3
2018-10-19T05:43:07.300Z,20.3
2018-10-19T05:43:57.084Z,20.3
2018-10-19T05:44:46.908Z,20.3
2018-10-19T05:45:36.273Z,20.3
2018-10-19T05:46:26.875Z,20.3
2018-10-19T05:47:18.804Z,20.3
2018-10-19T05:48:06.689Z,20.3
2018-10-19T05:48:57.045Z,20.3
2018-10-19T05:49:47.411Z,20.3
2018-10-19T05:50:37.188Z,20.3
2018-10-19T05:51:28.297Z,20.3
2018-10-19T05:52:18.411Z,20.3
2018-10-19T05:53:09.347Z,20.3
2018-10-19T05:53:57.963Z,20.3
2018-10-19T05:54:46.850Z,20.3
2018-10-19T05:55:36.391Z,20.3
2018-10-19T05:56:27.620Z,20.3
2018-10-19T05:57:17.120Z,20.3
2018-10-19T05:58:07.455Z,20.3
2018-10-19T05:58:58.703Z,20.3
2018-10-19T05:59:47.812Z,20.3
2018-10-19T06:00:38.140Z,20.3
2018-10-19T06:01:27.350Z,20.3
2018-10-19T06:02:19.518Z,20.3
2018-10-19T06:03:08.538Z,20.3
2018-10-19T06:03:58.213Z,20.3
2018-10-19T06:04:48.325Z,20.3
2018-10-19T06:05:38.054Z,20.3
2018-10-19T06:06:27.772Z,20.3
2018-10-19T06:07:17.807Z,20.3
2018-10-19T06:08:09.278Z,20.3
2018-10-19T06:08:57.964Z,20.3
2018-10-19T06:09:48.909Z,20.3
2018-10-19T06:10:38.915Z,20.3
2018-10-19T06:11:28.167Z,20.3
2018-10-19T06:12:18.279Z,20.3
2018-10-19T06:13:09.055Z,20.3
2018-10-19T06:13:59.721Z,20.3
2018-10-19T06:14:48.697Z,20.3
2018-10-19T06:15:39.306Z,20.3
2018-10-19T06:16:29.369Z,20.3
2018-10-19T06:17:20.387Z,20.3
2018-10-19T06:18:08.901Z,20.3
2018-10-19T06:18:59.512Z,20.3
2018-10-19T06:19:49.863Z,20.3
2018-10-19T06:20:39.921Z,20.3
2018-10-19T06:21:29.480Z,20.3
2018-10-19T06:22:20.023Z,20.3
2018-10-19T06:23:10.916Z,20.3
2018-10-19T06:23:59.324Z,20.3
2018-10-19T06:24:49.983Z,20.3
2018-10-19T06:25:39.155Z,20.3
2018-10-19T06:26:31.923Z,20.3
2018-10-19T06:27:19.861Z,20.3
2018-10-19T06:28:09.937Z,20.3
2018-10-19T06:29:00.349Z,20.3
2018-10-19T06:29:50.088Z,20.3
2018-10-19T06:30:39.828Z,20.3
2018-10-19T06:31:30.166Z,20.3
2018-10-19T06:32:20.590Z,20.3
2018-10-19T06:33:10.527Z,20.3
2018-10-19T06:34:00.087Z,20.3
2018-10-19T06:34:50.120Z,20.3
2018-10-19T06:35:40.493Z,20.3
2018-10-19T06:36:30.239Z,20.3
2018-10-19T06:37:20.876Z,20.3
2018-10-19T06:38:11.275Z,20.3
2018-10-19T06:39:01.011Z,20.3
2018-10-19T06:39:50.792Z,20.3
2018-10-19T06:40:41.774Z,20.3
2018-10-19T06:41:31.193Z,20.3
2018-10-19T06:42:21.564Z,20.3
2018-10-19T06:43:10.265Z,20.3
2018-10-19T06:44:02.502Z,20.3
2018-10-19T06:44:51.259Z,20.3
2018-10-19T06:45:41.065Z,20.3
2018-10-19T06:46:31.553Z,20.3
2018-10-19T06:47:23.361Z,20.3
2018-10-19T06:48:11.649Z,20.3
2018-10-19T06:49:02.024Z,20.3
2018-10-19T06:49:51.467Z,20.3
2018-10-19T06:50:40.936Z,20.3
2018-10-19T06:51:31.234Z,20.3
2018-10-19T06:52:21.758Z,20.3
2018-10-19T06:53:13.969Z,20.3
2018-10-19T06:54:01.559Z,20.3
2018-10-19T06:54:51.312Z,20.3
2018-10-19T06:55:41.429Z,20.3
2018-10-19T06:56:32.577Z,20.3
2018-10-19T06:57:22.373Z,20.3
2018-10-19T06:58:12.997Z,20.3
2018-10-19T06:59:04.691Z,20.3
2018-10-19T06:59:52.330Z,20.3
2018-10-19T07:00:42.275Z,20.3
2018-10-19T07:01:32.032Z,20.3
2018-10-19T07:02:23.065Z,20.3
2018-10-19T07:03:13.055Z,20.3
2018-10-19T07:04:02.830Z,20.3
2018-10-19T07:04:52.362Z,20.3
2018-10-19T07:05:43.965Z,20.3
2018-10-19T07:06:33.032Z,20.3
2018-10-19T07:07:22.237Z,20.3
2018-10-19T07:08:14.738Z,20.3
2018-10-19T07:09:03.207Z,20.3
2018-10-19T07:09:52.984Z,20.3
2018-10-19T07:10:42.782Z,20.3
2018-10-19T07:11:32.232Z,20.3
2018-10-19T07:12:23.436Z,20.3
2018-10-19T07:13:13.220Z,20.3
2018-10-19T07:14:04.766Z,20.3
2018-10-19T07:14:53.678Z,20.3
2018-10-19T07:15:43.363Z,20.4
2018-10-19T07:16:34.099Z,20.3
2018-10-19T07:17:24.182Z,20.3
2018-10-19T07:18:13.452Z,20.4
2018-10-19T07:19:04.748Z,20.4
2018-10-19T07:19:54.125Z,20.4
2018-10-19T07:20:43.628Z,20.4
2018-10-19T07:21:34.164Z,20.4
2018-10-19T07:22:24.251Z,20.4
2018-10-19T07:23:14.933Z,20.4
2018-10-19T07:24:04.070Z,20.4
2018-10-19T07:24:54.736Z,20.4
2018-10-19T07:25:44.169Z,20.4
2018-10-19T07:26:34.544Z,20.4
2018-10-19T07:27:24.577Z,20.4
2018-10-19T07:28:14.637Z,20.4
2018-10-19T07:29:05.047Z,20.4
2018-10-19T07:29:54.754Z,20.4
2018-10-19T07:30:44.283Z,20.4
2018-10-19T07:31:35.176Z,20.4
2018-10-19T07:32:24.949Z,20.4
2018-10-19T07:33:15.269Z,20.4
2018-10-19T07:34:05.443Z,20.4
2018-10-19T07:34:54.826Z,20.4
2018-10-19T07:35:45.016Z,20.4
2018-10-19T07:36:37.236Z,20.4
2018-10-19T07:37:25.607Z,20.4
2018-10-19T07:38:16.636Z,20.4
2018-10-19T07:39:04.626Z,20.4
2018-10-19T07:39:55.315Z,20.4
2018-10-19T07:40:45.346Z,20.4
2018-10-19T07:41:35.356Z,20.4
2018-10-19T07:42:27.678Z,20.4
2018-10-19T07:43:15.744Z,20.4
2018-10-19T07:44:07.406Z,20.4
2018-10-19T07:44:55.333Z,20.4
2018-10-19T07:45:45.328Z,20.4
2018-10-19T07:46:35.378Z,20.4
2018-10-19T07:47:27.098Z,20.4
2018-10-19T07:48:18.839Z,20.4
2018-10-19T07:49:05.887Z,20.4
2018-10-19T07:49:55.912Z,20.4
2018-10-19T07:50:46.004Z,20.4
2018-10-19T07:51:36.338Z,20.4
2018-10-19T07:52:26.120Z,20.4
2018-10-19T07:53:17.158Z,20.4
2018-10-19T07:54:07.997Z,20.4
2018-10-19T07:54:56.897Z,20.4
2018-10-19T07:55:45.832Z,20.4
2018-10-19T07:56:36.148Z,20.4
2018-10-19T07:57:26.759Z,20.4
2018-10-19T07:58:17.104Z,20.4
2018-10-19T07:59:08.237Z,20.4
2018-10-19T07:59:57.239Z,20.4
2018-10-19T08:00:47.682Z,20.4
2018-10-19T08:01:37.109Z,20.4
2018-10-19T08:02:27.444Z,20.4
2018-10-19T08:03:16.921Z,20.4
2018-10-19T08:04:07.319Z,20.4
2018-10-19T08:04:57.852Z,20.4
2018-10-19T08:05:46.543Z,20.4
2018-10-19T08:06:37.729Z,20.4
2018-10-19T08:07:27.806Z,20.4
2018-10-19T08:08:18.443Z,20.4
2018-10-19T08:09:06.891Z,20.4
2018-10-19T08:09:57.946Z,20.4
2018-10-19T08:10:48.106Z,20.4
2018-10-19T08:11:39.853Z,20.4
2018-10-19T08:12:28.159Z,20.4
2018-10-19T08:13:17.206Z,20.5
2018-10-19T08:14:09.602Z,20.5
2018-10-19T08:14:57.787Z,20.5
2018-10-19T08:15:48.448Z,20.4
2018-10-19T08:16:38.520Z,20.5
2018-10-19T08:17:27.999Z,20.4
2018-10-19T08:18:18.571Z,20.5
2018-10-19T08:19:08.383Z,20.4
2018-10-19T08:19:57.604Z,20.5
2018-10-19T08:20:48.304Z,20.4
2018-10-19T08:21:38.571Z,20.5
2018-10-19T08:22:28.141Z,20.5
2018-10-19T08:23:19.601Z,20.5
2018-10-19T08:24:08.760Z,20.5
2018-10-19T08:24:58.808Z,20.5
2018-10-19T08:25:49.144Z,20.5
2018-10-19T08:26:38.705Z,20.5
2018-10-19T08:27:31.546Z,20.5
2018-10-19T08:28:18.772Z,20.5
2018-10-19T08:29:10.727Z,20.5
2018-10-19T08:29:58.898Z,20.5
2018-10-19T08:30:48.684Z,20.5
2018-10-19T08:31:39.131Z,20.5
2018-10-19T08:32:29.418Z,20.5
2018-10-19T08:33:19.677Z,20.5
2018-10-19T08:34:09.525Z,20.5
2018-10-19T08:35:00.357Z,20.5
2018-10-19T08:35:49.384Z,20.6
2018-10-19T08:36:40.110Z,20.5
2018-10-19T08:37:29.397Z,20.5
2018-10-19T08:38:19.946Z,20.6
2018-10-19T08:39:10.220Z,20.6
2018-10-19T08:40:00.295Z,20.6
2018-10-19T08:40:50.329Z,20.6
2018-10-19T08:41:41.319Z,20.6
2018-10-19T08:42:30.419Z,20.6
2018-10-19T08:43:22.159Z,20.6
2018-10-19T08:44:09.709Z,20.6
2018-10-19T08:45:00.202Z,20.6
2018-10-19T08:45:49.309Z,20.6
2018-10-19T08:46:40.505Z,20.6
2018-10-19T08:47:30.390Z,20.6
2018-10-19T08:48:20.019Z,20.6
2018-10-19T08:49:11.043Z,20.6
2018-10-19T08:50:00.177Z,20.6
2018-10-19T08:50:49.759Z,20.6
2018-10-19T08:51:40.334Z,20.6
2018-10-19T08:52:30.936Z,20.6
2018-10-19T09:09:01.884Z,20.6
2018-10-19T09:09:50.938Z,20.7
2018-10-19T09:10:41.703Z,20.7
2018-10-19T09:11:32.888Z,20.7
2018-10-19T09:12:21.990Z,20.7
2018-10-19T09:13:11.367Z,20.7
2018-10-19T09:14:01.887Z,20.7
2018-10-19T09:14:51.402Z,20.7
2018-10-19T09:15:41.700Z,20.7
2018-10-19T09:16:31.797Z,20.7
2018-10-19T09:17:23.245Z,20.7
2018-10-19T09:18:11.920Z,20.7
2018-10-19T09:19:03.074Z,20.7
2018-10-19T09:19:51.402Z,20.7
2018-10-19T09:20:41.201Z,20.7
2018-10-19T09:21:31.867Z,20.7
2018-10-19T09:22:22.468Z,20.7
2018-10-19T09:23:13.469Z,20.8
2018-10-19T09:24:02.550Z,20.8
2018-10-19T09:24:51.874Z,20.7
2018-10-19T09:25:41.924Z,20.8
2018-10-19T09:26:32.177Z,20.8
2018-10-19T09:27:23.041Z,20.8
2018-10-19T09:28:12.606Z,20.8
2018-10-19T09:29:04.122Z,20.8
2018-10-19T09:29:52.524Z,20.8
2018-10-19T09:30:42.823Z,20.8
2018-10-19T09:31:32.288Z,20.8
2018-10-19T09:32:22.221Z,20.8
2018-10-19T09:33:14.626Z,20.8
2018-10-19T09:34:02.753Z,20.8
2018-10-19T09:34:52.857Z,20.8
2018-10-19T09:35:44.656Z,20.8
2018-10-19T09:36:37.769Z,20.8
2018-10-19T09:37:22.156Z,20.8
2018-10-19T09:38:12.857Z,20.8
2018-10-19T09:39:03.087Z,20.8
2018-10-19T09:39:53.743Z,20.8
2018-10-19T09:40:43.750Z,20.8
2018-10-19T09:41:33.952Z,20.8
2018-10-19T09:42:23.488Z,20.8
2018-10-19T09:43:14.581Z,20.8
2018-10-19T09:44:04.068Z,20.8
2018-10-19T09:44:54.378Z,20.8
2018-10-19T09:45:43.951Z,20.8
2018-10-19T09:46:33.743Z,20.8
2018-10-19T09:47:24.734Z,20.8
2018-10-19T09:48:14.128Z,20.8
2018-10-19T09:49:05.533Z,20.8
2018-10-19T09:49:54.721Z,20.8
2018-10-19T09:50:44.572Z,20.8
2018-10-19T09:51:34.403Z,20.8
2018-10-19T09:52:24.435Z,20.8
2018-10-19T09:53:15.748Z,20.8
2018-10-19T09:54:03.973Z,20.8
2018-10-19T09:54:54.342Z,20.8
2018-10-19T09:55:44.064Z,20.8
2018-10-19T09:56:34.450Z,20.8
2018-10-19T09:57:24.800Z,20.8
2018-10-19T09:58:14.562Z,20.8
2018-10-19T09:59:05.531Z,20.8
2018-10-19T09:59:54.382Z,20.8
2018-10-19T10:00:45.312Z,20.8
2018-10-19T10:01:34.843Z,20.8
2018-10-19T10:02:25.217Z,20.8
2018-10-19T10:03:17.852Z,20.8
2018-10-19T10:04:05.775Z,20.8
2018-10-19T10:04:56.042Z,20.8
2018-10-19T10:05:45.794Z,20.8
2018-10-19T10:06:35.292Z,20.8
2018-10-19T10:07:25.301Z,20.8
2018-10-19T10:08:15.664Z,20.8
2018-10-19T10:09:07.087Z,20.8
2018-10-19T10:09:55.228Z,20.9
2018-10-19T10:10:44.910Z,20.8
2018-10-19T10:11:35.970Z,20.8
2018-10-19T10:12:26.015Z,20.8
2018-10-19T10:13:17.364Z,20.9
2018-10-19T10:14:05.201Z,20.9
2018-10-19T10:14:58.308Z,20.9
2018-10-19T10:15:47.168Z,20.9
2018-10-19T10:16:36.113Z,20.9
2018-10-19T10:17:26.042Z,20.9
2018-10-19T10:18:15.511Z,20.9
2018-10-19T10:19:07.480Z,20.9
2018-10-19T10:19:56.511Z,20.9
2018-10-19T10:20:47.334Z,20.9
2018-10-19T10:21:35.711Z,20.9
2018-10-19T10:22:26.671Z,20.9
2018-10-19T10:23:16.683Z,20.9
2018-10-19T10:24:06.807Z,20.9
2018-10-19T10:24:57.898Z,20.9
2018-10-19T10:25:46.353Z,20.9
2018-10-19T10:26:36.674Z,20.9
2018-10-19T10:27:26.458Z,20.9
2018-10-19T10:28:18.417Z,20.9
2018-10-19T10:29:07.442Z,20.9
2018-10-19T10:29:57.225Z,20.9
2018-10-19T10:30:46.776Z,20.9
2018-10-19T10:31:37.612Z,20.9
2018-10-19T10:32:28.656Z,20.9
2018-10-19T10:33:16.946Z,20.9
2018-10-19T10:34:07.523Z,20.9
2018-10-19T10:34:57.569Z,20.9
2018-10-19T10:35:47.897Z,20.9
2018-10-19T10:36:38.213Z,20.9
2018-10-19T10:37:27.478Z,20.9
2018-10-19T10:38:17.568Z,20.9
2018-10-19T10:39:11.348Z,20.9
2018-10-19T10:39:58.158Z,20.9
2018-10-19T10:40:48.034Z,20.9
2018-10-19T10:41:38.638Z,20.9
2018-10-19T10:42:27.874Z,20.9
2018-10-19T10:43:19.080Z,20.9
2018-10-19T10:44:07.974Z,20.9
2018-10-19T10:44:58.346Z,20.9
2018-10-19T10:45:48.145Z,20.9
2018-10-19T10:46:38.712Z,20.9
2018-10-19T10:47:28.262Z,20.9
2018-10-19T10:48:17.747Z,20.9
2018-10-19T10:49:09.916Z,20.9
2018-10-19T10:49:58.431Z,20.9
2018-10-19T10:50:48.818Z,21
2018-10-19T10:51:37.983Z,20.9
2018-10-19T10:52:29.165Z,21
2018-10-19T10:53:18.377Z,21
2018-10-19T10:54:07.891Z,21
2018-10-19T10:54:59.439Z,21
2018-10-19T10:55:49.286Z,21
2018-10-19T10:56:39.675Z,20.9
2018-10-19T10:57:28.969Z,21
2018-10-19T10:58:20.017Z,21
2018-10-19T10:59:09.119Z,21
2018-10-19T10:59:59.713Z,20.9
2018-10-19T11:00:49.246Z,21
2018-10-19T11:01:39.039Z,21
2018-10-19T11:02:30.412Z,21
2018-10-19T11:03:19.697Z,21
2018-10-19T11:04:11.210Z,21
2018-10-19T11:04:58.973Z,21
2018-10-19T11:05:49.319Z,21
2018-10-19T11:06:39.926Z,21
2018-10-19T11:07:34.149Z,21
2018-10-19T11:08:20.414Z,21
2018-10-19T11:09:09.597Z,21
2018-10-19T11:10:00.714Z,21
2018-10-19T11:10:50.278Z,21
2018-10-19T11:11:40.105Z,21
2018-10-19T11:12:30.383Z,21
2018-10-19T11:13:20.236Z,21
2018-10-19T11:14:10.511Z,21
2018-10-19T11:14:59.997Z,21
2018-10-19T11:15:50.981Z,21
2018-10-19T11:16:40.155Z,21
2018-10-19T11:17:30.980Z,21
2018-10-19T11:18:20.333Z,21
2018-10-19T11:19:12.349Z,21
2018-10-19T11:20:00.277Z,21
2018-10-19T11:20:50.792Z,21
2018-10-19T11:21:41.394Z,21
2018-10-19T11:22:30.868Z,21
2018-10-19T11:23:20.921Z,21
2018-10-19T11:24:12.608Z,21
2018-10-19T11:25:02.037Z,21
2018-10-19T11:25:51.127Z,21
2018-10-19T11:26:41.469Z,21.1
2018-10-19T11:27:31.747Z,21
2018-10-19T11:28:22.137Z,21.1
2018-10-19T11:29:11.603Z,21.1
2018-10-19T11:30:01.473Z,21.1
2018-10-19T11:30:53.071Z,21.1
2018-10-19T11:31:41.555Z,21.1
2018-10-19T11:32:31.890Z,21.1
2018-10-19T11:33:21.956Z,21.1
2018-10-19T11:34:12.765Z,21.1
2018-10-19T11:35:01.257Z,21.1
2018-10-19T11:35:52.209Z,21.1
2018-10-19T11:36:42.451Z,21.1
2018-10-19T11:37:32.550Z,21.1
2018-10-19T11:38:22.342Z,21.1
2018-10-19T11:40:03.366Z,21.1
2018-10-19T11:42:32.653Z,21.1
2018-10-19T11:51:43.603Z,21.2
2018-10-19T11:52:32.501Z,21.2
2018-10-19T11:53:23.415Z,21.2
2018-10-19T11:54:13.850Z,21.2
2018-10-19T11:55:04.690Z,21.2
2018-10-19T11:55:52.503Z,21.2
2018-10-19T11:56:43.669Z,21.2
2018-10-19T11:57:34.070Z,21.2
2018-10-19T11:58:24.057Z,21.2
2018-10-19T11:59:13.493Z,21.2
2018-10-19T12:00:03.963Z,21.2
2018-10-19T12:00:53.937Z,21.2
2018-10-19T12:01:44.100Z,21.2
2018-10-19T12:02:34.363Z,21.2
2018-10-19T12:03:24.818Z,21.2
2018-10-19T12:04:15.856Z,21.3
2018-10-19T12:05:04.018Z,21.3
2018-10-19T12:05:54.110Z,21.2
2018-10-19T12:06:44.405Z,21.3
2018-10-19T12:07:34.730Z,21.2
2018-10-19T12:08:24.935Z,21.3
2018-10-19T12:09:15.520Z,21.2
2018-10-19T12:10:05.003Z,21.2
2018-10-19T12:10:55.441Z,21.3
2018-10-19T12:11:45.103Z,21.3
2018-10-19T12:12:35.191Z,21.2
2018-10-19T12:13:24.365Z,21.3
2018-10-19T12:14:14.775Z,21.3
2018-10-19T12:15:05.679Z,21.3
2018-10-19T12:15:55.264Z,21.2
2018-10-19T12:16:47.948Z,21.3
2018-10-19T12:17:35.478Z,21.3